Time;durP1;ratioP1;P1;durP2;ratioP2;P2;SDS_P1;SDS_P2;PMS_P1;PMS_P2;Temp;Humidity;BMP_temperature;BMP_pressure;BME280_temperature;BME280_humidity;BME280_pressure;Samples;Min_cycle;Max_cycle;Signal;HPM_P1;HPM_P2
2022/07/16 00:03:12;;;;;;;4.88;1.70;;;14.90;58.00;;;;;;4979659;28;20102;-68
2022/07/16 00:05:38;;;;;;;8.02;2.58;;;14.90;58.20;;;;;;5038109;28;20116;-69
2022/07/16 00:08:04;;;;;;;3.72;2.00;;;14.90;58.10;;;;;;5038498;28;20100;-67
2022/07/16 00:10:29;;;;;;;3.30;1.50;;;15.00;58.00;;;;;;5028886;28;20045;-69
2022/07/16 00:12:55;;;;;;;6.05;1.90;;;15.00;58.10;;;;;;5027889;28;20025;-67
2022/07/16 00:15:21;;;;;;;5.10;2.10;;;15.00;57.80;;;;;;5040015;28;20538;-69
2022/07/16 00:17:46;;;;;;;7.10;2.20;;;15.00;57.80;;;;;;5051491;28;20475;-69
2022/07/16 00:20:12;;;;;;;4.40;1.65;;;15.10;57.70;;;;;;5023012;28;20386;-69
2022/07/16 00:22:38;;;;;;;5.22;2.10;;;15.10;57.50;;;;;;5045315;28;20028;-70
2022/07/16 00:25:04;;;;;;;9.32;2.33;;;15.10;57.60;;;;;;5046689;28;20051;-69
2022/07/16 00:27:30;;;;;;;4.57;2.25;;;15.20;57.60;;;;;;5019360;28;20431;-66
2022/07/16 00:29:55;;;;;;;9.43;2.22;;;15.20;57.80;;;;;;5050396;28;20017;-67
2022/07/16 00:32:21;;;;;;;5.55;2.08;;;15.20;57.60;;;;;;5040684;28;20013;-68
2022/07/16 00:34:47;;;;;;;6.32;1.73;;;15.20;57.60;;;;;;5043605;28;20402;-69
2022/07/16 00:37:12;;;;;;;5.70;2.03;;;15.20;57.50;;;;;;5028450;28;20120;-70
2022/07/16 00:39:38;;;;;;;6.00;2.08;;;15.30;57.70;;;;;;5036994;28;20034;-69
2022/07/16 00:42:04;;;;;;;3.13;1.67;;;15.20;57.80;;;;;;5048949;28;20025;-69
2022/07/16 00:44:29;;;;;;;3.85;1.80;;;15.20;57.70;;;;;;5041455;28;20546;-68
2022/07/16 00:46:55;;;;;;;7.60;1.95;;;15.20;57.70;;;;;;5023635;28;20025;-69
2022/07/16 00:49:21;;;;;;;4.07;1.55;;;15.20;57.50;;;;;;5029455;28;20021;-68
2022/07/16 00:51:50;;;;;;;3.72;1.80;;;15.30;57.10;;;;;;5036598;28;20496;-69
2022/07/16 00:54:16;;;;;;;4.32;1.92;;;15.30;57.20;;;;;;5047178;28;20095;-69
2022/07/16 00:56:42;;;;;;;6.13;1.92;;;15.30;57.10;;;;;;5042479;28;20021;-70
2022/07/16 00:59:08;;;;;;;4.43;1.40;;;15.40;56.70;;;;;;5039338;28;20483;-68
2022/07/16 01:01:34;;;;;;;2.90;1.50;;;15.40;56.80;;;;;;5049464;28;20548;-69
2022/07/16 01:04:04;;;;;;;2.15;1.40;;;15.30;57.00;;;;;;5036787;28;20029;-66
2022/07/16 01:06:31;;;;;;;4.43;1.33;;;15.20;57.20;;;;;;5045092;28;20467;-69
2022/07/16 01:08:58;;;;;;;6.68;1.35;;;15.30;57.00;;;;;;5025755;28;20033;-66
2022/07/16 01:11:25;;;;;;;5.13;2.13;;;15.20;57.20;;;;;;5037414;28;20022;-69
2022/07/16 01:13:51;;;;;;;2.92;1.40;;;15.10;57.40;;;;;;5049369;28;20065;-69
2022/07/16 01:16:18;;;;;;;2.80;1.70;;;15.10;57.90;;;;;;5038872;28;20013;-69
2022/07/16 01:18:45;;;;;;;4.63;1.50;;;15.10;57.90;;;;;;5042260;28;20041;-66
2022/07/16 01:21:12;;;;;;;2.35;1.50;;;15.10;58.00;;;;;;5046167;28;20056;-69
2022/07/16 01:23:38;;;;;;;7.85;2.25;;;15.10;58.30;;;;;;5034381;28;20025;-66
2022/07/16 01:26:04;;;;;;;3.63;1.77;;;15.10;58.20;;;;;;5048332;28;20063;-69
2022/07/16 01:28:30;;;;;;;4.13;1.45;;;15.10;58.20;;;;;;5039654;28;20032;-69
2022/07/16 01:30:55;;;;;;;3.42;1.25;;;15.00;58.60;;;;;;5041037;28;20024;-70
2022/07/16 01:33:29;;;;;;;4.10;1.42;;;15.00;58.40;;;;;;5029337;28;20029;-70
2022/07/16 01:36:00;;;;;;;5.38;2.08;;;14.90;59.00;;;;;;5035953;28;20032;-69
2022/07/16 01:38:27;;;;;;;4.15;1.65;;;14.90;58.80;;;;;;5044143;28;20024;-70
2022/07/16 01:40:54;;;;;;;2.38;1.35;;;14.90;59.00;;;;;;5043510;28;20111;-69
2022/07/16 01:43:22;;;;;;;2.53;1.30;;;14.80;59.20;;;;;;5037682;28;20483;-70
2022/07/16 01:45:48;;;;;;;3.88;1.85;;;14.80;59.40;;;;;;5049301;28;20033;-71
2022/07/16 01:48:15;;;;;;;4.03;2.25;;;14.80;59.40;;;;;;5037886;28;20127;-69
2022/07/16 01:50:42;;;;;;;2.97;1.52;;;14.80;59.50;;;;;;5025777;28;20433;-71
2022/07/16 01:53:08;;;;;;;3.95;1.40;;;14.80;59.60;;;;;;5045837;28;20021;-66
2022/07/16 01:55:34;;;;;;;5.25;1.58;;;14.80;59.60;;;;;;5035467;28;20037;-70
2022/07/16 01:58:04;;;;;;;2.25;1.23;;;14.80;59.40;;;;;;5047260;28;20534;-71
2022/07/16 02:00:31;;;;;;;5.53;1.90;;;14.90;59.30;;;;;;5039648;28;20082;-70
2022/07/16 02:02:57;;;;;;;27.67;16.10;;;14.90;59.30;;;;;;5040343;28;20083;-71
2022/07/16 02:05:23;;;;;;;4.82;1.42;;;14.90;59.60;;;;;;5047137;28;20029;-71
2022/07/16 02:07:48;;;;;;;11.90;5.97;;;14.90;59.20;;;;;;5034495;28;20056;-69
2022/07/16 02:10:14;;;;;;;7.47;2.85;;;14.90;59.50;;;;;;5046088;28;20033;-67
2022/07/16 02:12:40;;;;;;;29.80;18.02;;;15.00;59.40;;;;;;5041036;28;20105;-67
2022/07/16 02:15:07;;;;;;;81.50;44.50;;;15.00;59.40;;;;;;5039438;28;20033;-69
2022/07/16 02:17:33;;;;;;;7.20;2.67;;;15.00;59.70;;;;;;5047055;28;20399;-68
2022/07/16 02:19:59;;;;;;;14.27;6.43;;;15.00;59.50;;;;;;5035320;28;20017;-70
2022/07/16 02:22:25;;;;;;;5.47;2.40;;;15.00;59.50;;;;;;5044355;28;20059;-69
2022/07/16 02:24:51;;;;;;;5.75;1.40;;;15.00;59.40;;;;;;5024656;28;20013;-69
2022/07/16 02:27:16;;;;;;;4.20;1.52;;;15.10;59.30;;;;;;5036281;28;20037;-68
2022/07/16 02:29:42;;;;;;;2.88;1.10;;;15.10;59.40;;;;;;5048280;28;20024;-69
2022/07/16 02:32:08;;;;;;;4.80;1.25;;;15.10;59.40;;;;;;5036345;28;20545;-69
2022/07/16 02:34:33;;;;;;;2.65;1.40;;;15.10;59.60;;;;;;5043309;28;20014;-69
2022/07/16 02:36:59;;;;;;;5.10;1.20;;;15.20;59.20;;;;;;5042798;28;20024;-66
2022/07/16 02:39:24;;;;;;;5.50;1.27;;;15.10;59.40;;;;;;5035398;28;20391;-67
2022/07/16 02:41:50;;;;;;;3.97;1.90;;;15.20;59.30;;;;;;5047667;28;20090;-71
2022/07/16 02:44:15;;;;;;;3.47;1.38;;;15.10;59.30;;;;;;5037351;28;20498;-67
2022/07/16 02:46:41;;;;;;;7.20;1.70;;;15.20;59.30;;;;;;5041931;28;20025;-68
2022/07/16 02:49:07;;;;;;;5.05;1.40;;;15.10;59.50;;;;;;5043378;28;20025;-69
2022/07/16 02:51:32;;;;;;;2.53;1.20;;;15.10;59.60;;;;;;5034576;28;20572;-67
2022/07/16 02:53:58;;;;;;;3.00;1.52;;;15.00;59.90;;;;;;5047472;28;20538;-69
2022/07/16 02:56:23;;;;;;;3.15;1.45;;;15.00;59.80;;;;;;5020360;28;20024;-68
2022/07/16 02:58:49;;;;;;;3.67;1.67;;;15.00;60.00;;;;;;5039514;28;20037;-67
2022/07/16 03:01:15;;;;;;;3.38;1.67;;;14.90;60.50;;;;;;5044810;28;20025;-68
2022/07/16 03:03:40;;;;;;;4.28;1.60;;;14.90;60.70;;;;;;5016786;28;20061;-68
2022/07/16 03:06:06;;;;;;;5.35;2.15;;;14.90;60.90;;;;;;5046506;28;20045;-68
2022/07/16 03:08:32;;;;;;;5.35;2.08;;;14.90;60.70;;;;;;5020433;28;20487;-68
2022/07/16 03:10:57;;;;;;;4.35;1.73;;;14.80;61.00;;;;;;5043652;28;20018;-68
2022/07/16 03:13:23;;;;;;;2.97;1.42;;;14.80;61.10;;;;;;5052947;28;20112;-66
2022/07/16 03:15:49;;;;;;;4.35;1.50;;;14.80;61.10;;;;;;5023177;28;20025;-68
2022/07/16 03:18:15;;;;;;;3.72;1.73;;;14.70;61.10;;;;;;5050719;28;20400;-69
2022/07/16 03:20:40;;;;;;;4.47;1.58;;;14.70;61.40;;;;;;5029253;28;20025;-69
2022/07/16 03:23:06;;;;;;;4.03;1.55;;;14.70;61.30;;;;;;5044536;28;20029;-71
2022/07/16 03:25:32;;;;;;;3.90;1.35;;;14.70;61.60;;;;;;5053620;28;20411;-68
2022/07/16 03:27:57;;;;;;;5.30;1.65;;;14.80;61.20;;;;;;5039543;28;20033;-66
2022/07/16 03:30:24;;;;;;;4.25;1.23;;;14.80;61.30;;;;;;5049503;28;20107;-68
2022/07/16 03:32:50;;;;;;;5.25;1.73;;;14.80;61.20;;;;;;5023041;28;20021;-68
2022/07/16 03:35:15;;;;;;;5.78;1.40;;;14.80;61.30;;;;;;5037400;28;20036;-68
2022/07/16 03:40:27;;;;;;;4.07;1.45;;;14.90;60.90;;;;;;5044933;28;20118;-66
2022/07/16 03:42:53;;;;;;;4.40;1.17;;;14.90;61.10;;;;;;5046284;28;20025;-68
2022/07/16 03:45:18;;;;;;;5.20;1.20;;;14.90;61.30;;;;;;5034024;28;20139;-69
2022/07/16 03:47:44;;;;;;;5.22;1.40;;;15.00;61.10;;;;;;5039761;28;20024;-66
2022/07/16 03:50:10;;;;;;;3.40;1.52;;;15.00;60.70;;;;;;5052170;28;20102;-69
2022/07/16 03:52:35;;;;;;;4.97;1.25;;;15.00;60.70;;;;;;5045950;28;20013;-67
2022/07/16 03:55:01;;;;;;;3.95;1.42;;;15.10;60.50;;;;;;5044907;28;20380;-68
2022/07/16 03:57:26;;;;;;;6.88;1.70;;;15.40;60.00;;;;;;5052416;28;20025;-69
2022/07/16 03:59:52;;;;;;;3.13;1.30;;;;;;;;;;5041017;28;20166;-68
2022/07/16 04:02:18;;;;;;;3.08;1.10;;;16.80;56.40;;;;;;5033065;28;20395;-69
2022/07/16 04:04:44;;;;;;;4.93;1.20;;;17.80;53.80;;;;;;5041591;28;20014;-69
2022/07/16 04:07:09;;;;;;;5.30;1.10;;;19.20;49.70;;;;;;5049933;28;20078;-68
2022/07/16 04:09:35;;;;;;;4.18;1.25;;;19.60;47.10;;;;;;5040596;28;20100;-68
2022/07/16 04:12:01;;;;;;;1.98;1.10;;;19.50;47.30;;;;;;5053670;28;20530;-67
2022/07/16 04:14:27;;;;;;;3.63;1.63;;;19.00;48.50;;;;;;5044594;28;20013;-68
2022/07/16 04:16:52;;;;;;;2.90;1.50;;;19.00;48.90;;;;;;5046099;28;20476;-68
2022/07/16 04:19:18;;;;;;;2.67;1.20;;;;;;;;;;5050828;28;20029;-68
2022/07/16 04:21:44;;;;;;;1.73;1.02;;;22.00;42.20;;;;;;5020683;28;20160;-66
2022/07/16 04:24:09;;;;;;;2.08;1.10;;;22.60;40.70;;;;;;5048448;28;20032;-66
2022/07/16 04:26:36;;;;;;;6.95;1.25;;;;;;;;;;5042337;28;20029;-67
2022/07/16 04:29:02;;;;;;;5.82;1.27;;;;;;;;;;5064337;22;20121;-67
2022/07/16 04:31:27;;;;;;;3.90;1.33;;;25.90;34.30;;;;;;5038062;28;20464;-67
2022/07/16 04:33:53;;;;;;;5.78;1.30;;;26.60;32.80;;;;;;5050271;28;20022;-67
2022/07/16 04:36:18;;;;;;;2.75;1.15;;;27.10;32.30;;;;;;5039993;28;20110;-67
2022/07/16 04:38:44;;;;;;;3.40;1.30;;;28.10;30.70;;;;;;5042876;28;20024;-68
2022/07/16 04:41:09;;;;;;;3.63;1.20;;;28.90;29.50;;;;;;5046970;28;20033;-68
2022/07/16 04:43:35;;;;;;;1.00;0.82;;;29.80;28.40;;;;;;5037024;28;20092;-68
2022/07/16 04:46:01;;;;;;;4.28;1.35;;;29.80;28.10;;;;;;5049456;28;20056;-68
2022/07/16 04:48:26;;;;;;;1.50;0.90;;;29.80;27.90;;;;;;5039946;28;20107;-68
2022/07/16 04:50:52;;;;;;;3.53;1.00;;;29.00;28.70;;;;;;5042814;28;20017;-68
2022/07/16 04:53:18;;;;;;;3.50;1.00;;;27.60;30.50;;;;;;5047778;28;20087;-68
2022/07/16 04:55:43;;;;;;;2.72;1.45;;;28.00;30.90;;;;;;5036624;28;20018;-67
2022/07/16 04:58:09;;;;;;;3.92;1.35;;;28.40;29.80;;;;;;5029631;28;20041;-67
2022/07/16 05:00:35;;;;;;;2.72;0.80;;;29.10;28.70;;;;;;5041657;28;20044;-68
2022/07/16 05:03:01;;;;;;;6.43;1.80;;;30.10;27.60;;;;;;5041106;28;20391;-68
2022/07/16 05:05:33;;;;;;;3.38;1.23;;;31.00;26.50;;;;;;5031020;28;20036;-68
2022/07/16 05:08:00;;;;;;;2.20;0.90;;;30.90;26.00;;;;;;5019601;28;20539;-68
2022/07/16 05:10:26;;;;;;;3.20;1.13;;;29.70;27.20;;;;;;5045494;28;20018;-68
2022/07/16 05:12:53;;;;;;;2.47;1.13;;;;;;;;;;5044048;28;20093;-68
2022/07/16 05:15:19;;;;;;;4.32;1.10;;;26.90;31.50;;;;;;5038417;28;20026;-67
2022/07/16 05:17:44;;;;;;;2.42;1.20;;;25.80;32.90;;;;;;5048662;28;20056;-68
2022/07/16 05:20:11;;;;;;;1.98;1.10;;;;;;;;;;5037872;28;20479;-68
2022/07/16 05:22:37;;;;;;;2.88;1.70;;;;;;;;;;5044006;28;20024;-67
2022/07/16 05:25:04;;;;;;;4.53;1.45;;;;;;;;;;5045067;28;20021;-67
2022/07/16 05:27:30;;;;;;;5.03;1.60;;;;;;;;;;5035618;28;20104;-68
2022/07/16 05:29:56;;;;;;;3.97;1.95;;;;;;;;;;5043454;28;20203;-68
2022/07/16 05:32:22;;;;;;;3.83;1.40;;;;;;;;;;5042393;28;20104;-68
2022/07/16 05:34:50;;;;;;;3.20;1.80;;;;;;;;;;5041698;28;20017;-67
2022/07/16 05:37:16;;;;;;;4.72;1.30;;;;;;;;;;5039280;28;20691;-67
2022/07/16 05:39:42;;;;;;;2.20;1.15;;;;;;;;;;5035522;28;20482;-67
2022/07/16 05:42:09;;;;;;;3.85;1.48;;;;;;;;;;5047341;28;20026;-68
2022/07/16 05:44:35;;;;;;;4.63;2.03;;;;;;;;;;5039558;28;20052;-68
2022/07/16 05:47:01;;;;;;;3.00;1.20;;;;;;;;;;5044287;28;20061;-68
2022/07/16 05:49:27;;;;;;;3.80;1.20;;;;;;;;;;5036383;28;20037;-68
2022/07/16 05:51:52;;;;;;;3.75;1.60;;;25.00;35.00;;;;;;5048859;28;20029;-67
2022/07/16 05:54:18;;;;;;;6.05;1.50;;;;;;;;;;5037774;28;20228;-68
2022/07/16 05:56:44;;;;;;;5.03;1.23;;;;;;;;;;5042063;28;20467;-67
2022/07/16 05:59:10;;;;;;;3.17;1.02;;;;;;;;;;5044602;28;20032;-68
2022/07/16 06:01:36;;;;;;;2.25;0.98;;;30.70;26.50;;;;;;5035270;28;20036;-68
2022/07/16 06:04:02;;;;;;;2.83;1.55;;;;;;;;;;5046277;28;20403;-68
2022/07/16 06:06:28;;;;;;;2.70;1.10;;;;;;;;;;5038242;28;20048;-73
2022/07/16 06:08:54;;;;;;;3.03;1.17;;;;;;;;;;5035757;28;20075;-73
2022/07/16 06:11:20;;;;;;;3.88;1.27;;;;;;;;;;5029727;28;20407;-67
2022/07/16 06:13:46;;;;;;;3.08;1.42;;;;;;;;;;5045763;28;20100;-69
2022/07/16 06:16:12;;;;;;;3.78;1.20;;;30.90;25.00;;;;;;5032550;28;20482;-68
2022/07/16 06:18:38;;;;;;;4.63;1.08;;;;;;;;;;5029737;28;20036;-68
2022/07/16 06:21:04;;;;;;;4.13;1.58;;;29.40;26.80;;;;;;5031678;28;20083;-70
2022/07/16 06:23:30;;;;;;;8.82;1.70;;;28.20;28.40;;;;;;5031455;28;20024;-70
2022/07/16 06:25:56;;;;;;;5.25;1.42;;;28.30;28.50;;;;;;5050279;28;20043;-70
2022/07/16 06:28:21;;;;;;;2.78;0.85;;;27.80;28.70;;;;;;5034781;28;20118;-70
2022/07/16 06:30:47;;;;;;;3.75;1.05;;;27.50;28.90;;;;;;5044399;28;20446;-69
2022/07/16 06:33:12;;;;;;;3.67;1.00;;;27.30;29.70;;;;;;5042622;28;20021;-70
2022/07/16 06:35:38;;;;;;;4.30;1.38;;;27.40;29.70;;;;;;5037193;28;20450;-70
2022/07/16 06:38:04;;;;;;;4.80;1.40;;;27.70;29.40;;;;;;5047142;28;20100;-68
2022/07/16 06:40:30;;;;;;;3.65;1.23;;;29.50;27.40;;;;;;5036561;28;20017;-68
2022/07/16 06:42:55;;;;;;;5.85;0.93;;;29.70;26.90;;;;;;5032212;28;20464;-69
2022/07/16 06:45:21;;;;;;;1.95;0.73;;;30.00;26.60;;;;;;5030598;28;20021;-69
2022/07/16 06:47:47;;;;;;;4.18;0.85;;;30.20;25.80;;;;;;5034029;28;20030;-70
2022/07/16 06:50:13;;;;;;;3.97;1.10;;;29.90;26.50;;;;;;5015154;28;21510;-69
2022/07/16 06:52:39;;;;;;;3.65;0.98;;;;;;;;;;5040298;28;20017;-69
2022/07/16 06:55:05;;;;;;;2.63;0.95;;;;;;;;;;5038894;28;20424;-68
2022/07/16 06:57:32;;;;;;;13.57;1.20;;;26.00;31.20;;;;;;5041471;28;20022;-68
2022/07/16 06:59:57;;;;;;;3.13;1.15;;;24.70;33.50;;;;;;5031220;28;20529;-69
2022/07/16 07:02:23;;;;;;;6.07;0.90;;;23.90;35.20;;;;;;5045389;28;20054;-69
2022/07/16 07:04:49;;;;;;;2.45;1.33;;;23.20;36.60;;;;;;5038889;28;20017;-68
2022/07/16 07:07:15;;;;;;;4.53;1.30;;;;;;;;;;5038859;28;20468;-68
2022/07/16 07:09:41;;;;;;;5.22;1.25;;;;;;;;;;5045673;28;20017;-69
2022/07/16 07:12:07;;;;;;;4.82;1.15;;;;;;;;;;5034280;28;20025;-68
2022/07/16 07:14:33;;;;;;;21.40;10.27;;;;;;;;;;5045884;28;20440;-69
2022/07/16 07:16:59;;;;;;;3.45;1.13;;;;;;;;;;5039018;28;20309;-69
2022/07/16 07:19:25;;;;;;;9.65;5.22;;;;;;;;;;5038426;28;20080;-68
2022/07/16 07:21:51;;;;;;;31.23;16.80;;;;;;;;;;5047207;28;20033;-69
2022/07/16 07:24:17;;;;;;;31.73;15.73;;;;;;;;;;5034430;28;20036;-70
2022/07/16 07:26:43;;;;;;;4.15;1.35;;;;;;;;;;5043391;28;20387;-70
2022/07/16 07:29:09;;;;;;;4.22;1.15;;;;;;;;;;5038174;28;20033;-70
2022/07/16 07:31:38;;;;;;;19.13;9.27;;;;;;;;;;5035075;28;20503;-70
2022/07/16 07:34:04;;;;;;;4.88;1.83;;;;;;;;;;5045522;28;20469;-69
2022/07/16 07:36:30;;;;;;;6.60;1.95;;;;;;;;;;5032787;28;20047;-69
2022/07/16 07:38:55;;;;;;;7.15;1.65;;;;;;;;;;5039793;28;20021;-68
2022/07/16 07:41:22;;;;;;;5.70;1.70;;;;;;;;;;5041199;28;20040;-69
2022/07/16 07:43:48;;;;;;;3.50;1.30;;;;;;;;;;5034958;28;20029;-69
2022/07/16 07:46:13;;;;;;;3.70;1.10;;;23.60;41.10;;;;;;5030609;28;20032;-69
2022/07/16 07:48:39;;;;;;;3.08;1.35;;;23.70;40.90;;;;;;5037419;28;20028;-69
2022/07/16 07:51:05;;;;;;;4.25;1.48;;;24.70;38.30;;;;;;5042446;28;20025;-69
2022/07/16 07:53:30;;;;;;;2.58;1.08;;;25.50;36.70;;;;;;5045680;28;20417;-69
2022/07/16 07:55:56;;;;;;;18.75;9.85;;;25.40;36.50;;;;;;5036919;28;20092;-70
2022/07/16 07:58:21;;;;;;;3.42;1.17;;;25.30;36.60;;;;;;5051785;28;20033;-68
2022/07/16 08:00:47;;;;;;;3.97;1.35;;;25.00;36.60;;;;;;5043351;28;20032;-69
2022/07/16 08:03:13;;;;;;;2.75;1.13;;;24.50;37.20;;;;;;5044004;28;20021;-69
2022/07/16 08:05:38;;;;;;;2.45;1.13;;;23.80;38.70;;;;;;5049499;28;20135;-68
2022/07/16 08:08:04;;;;;;;12.23;2.03;;;23.60;39.70;;;;;;5037799;28;20662;-69
2022/07/16 08:10:30;;;;;;;15.20;5.82;;;23.30;40.30;;;;;;5050965;28;20489;-69
2022/07/16 08:12:55;;;;;;;54.80;29.30;;;23.00;41.10;;;;;;5046270;28;20466;-68
2022/07/16 08:15:21;;;;;;;10.93;4.15;;;22.90;41.60;;;;;;5045510;28;20025;-69
2022/07/16 08:17:47;;;;;;;14.77;5.30;;;22.70;42.10;;;;;;5052046;28;20031;-69
2022/07/16 08:20:13;;;;;;;5.43;1.58;;;;;;;;;;5040047;28;20454;-69
2022/07/16 08:22:39;;;;;;;3.92;1.48;;;;;;;;;;5050605;28;20053;-69
2022/07/16 08:27:51;;;;;;;8.38;1.55;;;;;;;;;;5040804;28;20133;-69
2022/07/16 08:30:20;;;;;;;5.50;1.23;;;;;;;;;;5053537;28;20029;-69
2022/07/16 08:32:45;;;;;;;2.15;1.20;;;;;;;;;;5044540;28;20085;-69
2022/07/16 08:35:12;;;;;;;6.35;1.35;;;;;;;;;;5048554;28;20052;-69
2022/07/16 08:37:39;;;;;;;4.20;1.50;;;;;;;;;;5053287;28;20131;-69
2022/07/16 08:40:07;;;;;;;4.53;1.42;;;;;;;;;;5037700;28;20395;-69
2022/07/16 08:42:33;;;;;;;3.53;1.50;;;;;;;;;;5048882;28;20392;-70
2022/07/16 08:45:01;;;;;;;4.13;1.40;;;;;;;;;;5043176;28;20048;-69
2022/07/16 08:47:28;;;;;;;2.65;0.98;;;;;;;;;;5040728;28;20500;-71
2022/07/16 08:49:54;;;;;;;5.25;1.67;;;;;;;;;;5050368;28;20147;-68
2022/07/16 08:52:21;;;;;;;2.55;1.15;;;;;;;;;;5037706;28;20028;-68
2022/07/16 08:54:48;;;;;;;4.60;1.17;;;;;;;;;;5046582;28;20018;-69
2022/07/16 08:57:15;;;;;;;2.75;1.13;;;;;;;;;;5043989;28;20107;-68
2022/07/16 08:59:41;;;;;;;5.35;1.50;;;;;;;;;;5038949;28;20036;-68
2022/07/16 09:02:07;;;;;;;8.55;2.03;;;;;;;;;;5050574;28;20112;-69
2022/07/16 09:04:33;;;;;;;3.53;1.60;;;;;;;;;;5039395;28;20021;-69
2022/07/16 09:06:59;;;;;;;79.70;50.45;;;;;;;;;;5044615;28;20029;-71
2022/07/16 09:09:25;;;;;;;205.90;106.55;;;;;;;;;;5028090;28;20017;-68
2022/07/16 09:11:51;;;;;;;17.02;6.57;;;;;;;;;;5037737;28;20041;-69
2022/07/16 09:14:18;;;;;;;11.40;5.80;;;;;;;;;;5050029;28;20450;-69
2022/07/16 09:16:51;;;;;;;8.65;2.88;;;;;;;;;;5040860;28;20378;-69
2022/07/16 09:19:19;;;;;;;5.80;2.88;;;;;;;;;;5041239;28;20033;-69
2022/07/16 09:22:08;;;;;;;5.65;1.80;;;;;;;;;;5049066;28;20025;-69
2022/07/16 09:24:45;;;;;;;4.63;1.60;;;;;;;;;;5016568;28;20025;-69
2022/07/16 09:27:11;;;;;;;4.03;1.58;;;;;;;;;;5041827;28;20053;-70
2022/07/16 09:29:48;;;;;;;4.43;1.70;;;;;;;;;;5047401;28;20029;-68
2022/07/16 09:32:27;;;;;;;3.25;1.58;;;;;;;;;;5018787;28;20036;-68
2022/07/16 09:35:11;;;;;;;188.00;120.28;;;22.60;47.90;;;;;;5044776;28;20495;-69
2022/07/16 09:37:54;;;;;;;5.22;2.13;;;22.90;46.50;;;;;;5047236;28;20021;-69
2022/07/16 09:40:31;;;;;;;154.68;75.00;;;23.00;45.30;;;;;;5020830;28;20025;-69
2022/07/16 09:42:57;;;;;;;10.73;3.53;;;23.30;44.20;;;;;;5045338;28;20029;-70
2022/07/16 09:45:23;;;;;;;5.63;1.30;;;23.50;43.80;;;;;;5030564;28;20029;-69
2022/07/16 09:47:49;;;;;;;6.85;1.70;;;23.70;43.20;;;;;;5040235;28;20037;-71
2022/07/16 09:50:15;;;;;;;3.75;1.85;;;23.80;43.00;;;;;;5054602;28;20393;-69
2022/07/16 09:52:41;;;;;;;6.07;1.30;;;23.50;44.10;;;;;;5044358;28;20027;-68
2022/07/16 09:55:20;;;;;;;6.57;1.95;;;23.20;44.20;;;;;;5027682;28;20130;-69
2022/07/16 09:58:05;;;;;;;3.63;1.50;;;22.90;44.20;;;;;;5030529;28;20021;-69
2022/07/16 10:00:31;;;;;;;5.53;1.92;;;22.70;44.80;;;;;;5023875;28;20478;-69
2022/07/16 10:03:06;;;;;;;2.83;1.35;;;22.10;45.90;;;;;;5026730;28;20100;-69
2022/07/16 10:05:31;;;;;;;5.05;1.65;;;22.00;46.50;;;;;;5046043;28;20049;-69
2022/07/16 10:07:57;;;;;;;5.30;2.10;;;21.80;46.90;;;;;;5035000;28;20045;-69
2022/07/16 10:10:23;;;;;;;3.53;1.85;;;;;;;;;;5048481;28;20025;-69
2022/07/16 10:12:50;;;;;;;5.35;1.73;;;;;;;;;;5040285;28;20024;-70
2022/07/16 10:15:17;;;;;;;5.00;1.90;;;;;;;;;;5041320;28;20021;-71
2022/07/16 10:17:44;;;;;;;4.68;1.70;;;;;;;;;;5046845;28;20036;-72
2022/07/16 10:20:11;;;;;;;4.38;1.63;;;;;;;;;;5035050;28;20022;-68
2022/07/16 10:22:37;;;;;;;5.28;2.00;;;;;;;;;;5046221;28;20091;-69
2022/07/16 10:25:10;;;;;;;7.25;1.95;;;;;;;;;;5042243;28;20025;-69
2022/07/16 10:27:36;;;;;;;4.70;2.25;;;;;;;;;;5060785;22;20029;-70
2022/07/16 10:30:08;;;;;;;2.97;1.77;;;;;;;;;;5048331;28;20037;-70
2022/07/16 10:32:53;;;;;;;4.93;1.90;;;;;;;;;;5019640;28;20023;-70
2022/07/16 10:35:38;;;;;;;10.30;5.38;;;;;;;;;;5038600;28;20021;-70
2022/07/16 10:38:18;;;;;;;10.38;4.60;;;;;;;;;;5048023;28;20029;-68
2022/07/16 10:40:45;;;;;;;9.13;4.03;;;;;;;;;;5038288;28;20017;-70
2022/07/16 10:43:18;;;;;;;10.15;5.38;;;;;;;;;;5040522;28;20029;-69
2022/07/16 10:45:51;;;;;;;3.20;1.85;;;;;;;;;;5046790;28;20025;-71
2022/07/16 10:48:18;;;;;;;7.93;3.50;;;;;;;;;;5033839;28;20574;-68
2022/07/16 10:51:03;;;;;;;31.95;12.15;;;;;;;;;;5044423;28;20021;-68
2022/07/16 10:53:29;;;;;;;8.95;2.70;;;;;;;;;;5044376;28;20025;-68
2022/07/16 10:55:55;;;;;;;4.43;2.10;;;;;;;;;;5034376;28;20052;-69
2022/07/16 10:58:26;;;;;;;6.10;2.10;;;;;;;;;;5046411;28;20025;-70
2022/07/16 11:00:53;;;;;;;5.07;1.90;;;;;;;;;;5021323;28;20036;-70
2022/07/16 11:03:19;;;;;;;8.68;2.33;;;;;;;;;;5039509;28;20038;-70
2022/07/16 11:05:45;;;;;;;4.32;1.90;;;21.80;54.00;;;;;;5046430;28;20021;-69
2022/07/16 11:08:12;;;;;;;4.43;2.03;;;21.80;54.00;;;;;;5033943;28;20036;-69
2022/07/16 11:10:39;;;;;;;4.85;2.08;;;22.20;52.50;;;;;;5045092;28;20430;-68
2022/07/16 11:13:14;;;;;;;4.50;1.98;;;22.50;51.00;;;;;;5041139;28;20029;-69
2022/07/16 11:15:40;;;;;;;5.00;2.10;;;22.60;51.00;;;;;;5045481;28;20407;-68
2022/07/16 11:18:15;;;;;;;3.75;1.92;;;22.70;49.80;;;;;;5047048;28;20017;-70
2022/07/16 11:20:41;;;;;;;7.53;2.20;;;22.60;48.90;;;;;;5038010;28;20079;-70
2022/07/16 11:23:07;;;;;;;3.35;1.52;;;22.30;49.40;;;;;;5040821;28;20077;-67
2022/07/16 11:25:32;;;;;;;6.22;1.98;;;22.00;50.10;;;;;;5044652;28;20025;-68
2022/07/16 11:28:01;;;;;;;7.13;2.22;;;21.50;50.70;;;;;;5033481;28;20033;-69
2022/07/16 11:30:27;;;;;;;10.23;2.25;;;21.20;52.00;;;;;;5046282;28;20090;-68
2022/07/16 11:32:52;;;;;;;7.55;2.00;;;21.20;52.00;;;;;;5042955;28;20092;-70
2022/07/16 11:35:18;;;;;;;7.43;2.10;;;21.50;51.60;;;;;;5041720;28;20022;-70
2022/07/16 11:37:55;;;;;;;2.78;2.00;;;21.50;51.20;;;;;;5049617;28;20021;-69
2022/07/16 11:40:32;;;;;;;2.90;1.40;;;21.60;51.20;;;;;;5023023;28;20032;-70
2022/07/16 11:42:59;;;;;;;6.43;2.05;;;21.90;51.10;;;;;;5045720;28;20036;-71
2022/07/16 11:45:27;;;;;;;2.95;1.75;;;22.20;51.00;;;;;;5047520;28;20026;-68
2022/07/16 11:48:11;;;;;;;7.28;1.58;;;22.50;50.50;;;;;;5037166;28;20056;-71
2022/07/16 11:50:37;;;;;;;2.38;1.95;;;22.50;49.40;;;;;;5009292;28;20483;-71
2022/07/16 11:53:02;;;;;;;6.18;1.80;;;22.50;49.60;;;;;;5045233;28;20028;-70
2022/07/16 11:55:28;;;;;;;2.88;1.58;;;22.80;49.10;;;;;;5047644;28;20025;-70
2022/07/16 11:57:53;;;;;;;5.20;1.58;;;23.00;48.10;;;;;;5019443;28;20053;-69
2022/07/16 12:00:19;;;;;;;3.97;1.70;;;23.20;47.40;;;;;;5051076;28;20024;-69
2022/07/16 12:02:45;;;;;;;5.35;1.75;;;23.20;48.00;;;;;;5041935;28;20482;-69
2022/07/16 12:05:10;;;;;;;4.63;1.77;;;23.20;48.10;;;;;;5043620;28;20036;-70
2022/07/16 12:07:36;;;;;;;3.50;1.52;;;23.50;47.70;;;;;;5047796;28;20025;-67
2022/07/16 12:10:06;;;;;;;2.85;1.30;;;23.40;47.10;;;;;;5037595;28;20088;-69
2022/07/16 12:12:34;;;;;;;3.90;1.50;;;23.20;47.50;;;;;;5049185;28;20021;-70
2022/07/16 12:15:03;;;;;;;3.58;1.17;;;23.00;47.90;;;;;;5025115;28;20021;-70
2022/07/16 12:17:31;;;;;;;3.85;1.75;;;23.00;48.20;;;;;;5047165;28;20024;-69
2022/07/16 12:20:26;;;;;;;3.17;1.38;;;22.60;48.60;;;;;;5019966;28;20037;-70
2022/07/16 12:22:59;;;;;;;5.25;1.40;;;22.30;49.40;;;;;;5028218;28;20065;-70
2022/07/16 12:25:27;;;;;;;3.15;1.27;;;22.10;50.00;;;;;;5046873;28;20032;-70
2022/07/16 12:28:19;;;;;;;2.85;1.42;;;22.00;49.60;;;;;;5036621;28;20053;-70
2022/07/16 12:30:55;;;;;;;4.05;1.50;;;22.00;49.60;;;;;;5017804;28;20025;-69
2022/07/16 12:33:24;;;;;;;3.88;1.40;;;22.00;50.00;;;;;;5041873;28;20029;-70
2022/07/16 12:35:51;;;;;;;2.13;0.75;;;21.90;48.80;;;;;;5048031;28;20017;-70
2022/07/16 12:39:02;;;;;;;3.60;1.42;;;22.00;47.30;;;;;;5036293;28;20158;-71
2022/07/16 12:41:42;;;;;;;9.25;1.15;;;22.20;46.00;;;;;;5040857;28;20032;-69
2022/07/16 12:44:18;;;;;;;2.17;1.15;;;22.10;46.10;;;;;;5049611;28;20104;-70
2022/07/16 12:46:51;;;;;;;2.70;0.98;;;22.20;45.50;;;;;;5040605;28;20027;-68
2022/07/16 12:49:23;;;;;;;2.03;1.02;;;22.30;45.10;;;;;;5041254;28;20135;-70
2022/07/16 12:51:51;;;;;;;1.25;0.90;;;22.40;45.10;;;;;;5049635;28;20079;-71
2022/07/16 12:54:20;;;;;;;6.72;0.98;;;22.50;44.40;;;;;;5036656;28;20229;-69
2022/07/16 12:59:32;;;;;;;1.77;0.85;;;22.80;43.00;;;;;;5045706;28;20055;-72
2022/07/16 13:01:58;;;;;;;1.52;0.75;;;23.00;41.90;;;;;;5036377;28;20105;-72
2022/07/16 13:04:24;;;;;;;6.38;0.90;;;23.20;41.00;;;;;;5048798;28;20109;-69
2022/07/16 13:06:50;;;;;;;4.40;1.10;;;23.40;40.80;;;;;;5040525;28;20112;-71
2022/07/16 13:09:16;;;;;;;1.90;1.02;;;23.70;39.90;;;;;;5040742;28;20440;-67
2022/07/16 13:11:42;;;;;;;2.45;0.90;;;24.00;39.10;;;;;;5047634;28;20450;-68
2022/07/16 13:14:09;;;;;;;11.35;1.25;;;24.10;38.60;;;;;;5036098;28;20025;-70
2022/07/16 13:16:36;;;;;;;11.02;3.38;;;24.30;38.50;;;;;;5044952;28;20028;-68
2022/07/16 13:19:03;;;;;;;10.15;5.43;;;24.40;37.50;;;;;;5024379;28;20044;-69
2022/07/16 13:21:30;;;;;;;7.50;3.95;;;24.10;38.80;;;;;;5045711;28;20021;-69
2022/07/16 13:23:56;;;;;;;1.92;1.10;;;23.40;42.60;;;;;;5036062;28;20025;-71
2022/07/16 13:26:24;;;;;;;7.72;2.40;;;22.60;45.10;;;;;;5048081;28;20021;-71
2022/07/16 13:28:51;;;;;;;5.03;1.40;;;22.30;46.00;;;;;;5039372;28;20037;-69